sensor_id;sensor_type;location;lat;lon;timestamp;P1;durP1;ratioP1;P2;durP2;ratioP2
43487;SDS011;29078;41.932;25.554;2022-12-18T00:01:25;54.30;;;36.70;;
43487;SDS011;29078;41.932;25.554;2022-12-18T00:03:51;56.05;;;39.40;;
43487;SDS011;29078;41.932;25.554;2022-12-18T00:06:18;52.47;;;36.75;;
43487;SDS011;29078;41.932;25.554;2022-12-18T00:08:47;47.28;;;35.58;;
43487;SDS011;29078;41.932;25.554;2022-12-18T00:11:14;44.58;;;32.22;;
43487;SDS011;29078;41.932;25.554;2022-12-18T00:13:41;55.00;;;38.83;;
43487;SDS011;29078;41.932;25.554;2022-12-18T00:16:08;49.10;;;35.85;;
43487;SDS011;29078;41.932;25.554;2022-12-18T00:18:35;44.20;;;31.63;;
43487;SDS011;29078;41.932;25.554;2022-12-18T00:21:02;42.05;;;32.85;;
43487;SDS011;29078;41.932;25.554;2022-12-18T00:23:30;43.67;;;32.72;;
43487;SDS011;29078;41.932;25.554;2022-12-18T00:25:59;40.30;;;30.52;;
43487;SDS011;29078;41.932;25.554;2022-12-18T00:28:26;38.65;;;29.52;;
43487;SDS011;29078;41.932;25.554;2022-12-18T00:30:58;41.42;;;30.05;;
43487;SDS011;29078;41.932;25.554;2022-12-18T00:33:27;42.40;;;30.95;;
43487;SDS011;29078;41.932;25.554;2022-12-18T00:35:52;37.88;;;27.33;;
43487;SDS011;29078;41.932;25.554;2022-12-18T00:38:18;41.03;;;29.45;;
43487;SDS011;29078;41.932;25.554;2022-12-18T00:40:43;44.75;;;32.65;;
43487;SDS011;29078;41.932;25.554;2022-12-18T00:43:08;45.28;;;30.48;;
43487;SDS011;29078;41.932;25.554;2022-12-18T00:45:34;43.47;;;31.80;;
43487;SDS011;29078;41.932;25.554;2022-12-18T00:47:59;44.65;;;32.45;;
43487;SDS011;29078;41.932;25.554;2022-12-18T00:50:25;46.63;;;33.00;;
43487;SDS011;29078;41.932;25.554;2022-12-18T00:52:50;49.67;;;33.97;;
43487;SDS011;29078;41.932;25.554;2022-12-18T00:55:16;52.30;;;32.53;;
43487;SDS011;29078;41.932;25.554;2022-12-18T00:57:42;44.08;;;31.48;;
43487;SDS011;29078;41.932;25.554;2022-12-18T01:00:10;38.28;;;29.60;;
43487;SDS011;29078;41.932;25.554;2022-12-18T01:02:39;40.30;;;30.95;;
43487;SDS011;29078;41.932;25.554;2022-12-18T01:05:05;39.85;;;30.42;;
43487;SDS011;29078;41.932;25.554;2022-12-18T01:07:31;45.22;;;31.25;;
43487;SDS011;29078;41.932;25.554;2022-12-18T01:09:56;45.38;;;33.30;;
43487;SDS011;29078;41.932;25.554;2022-12-18T01:12:22;43.97;;;31.60;;
43487;SDS011;29078;41.932;25.554;2022-12-18T01:14:47;41.65;;;29.83;;
43487;SDS011;29078;41.932;25.554;2022-12-18T01:17:13;84.00;;;53.80;;
43487;SDS011;29078;41.932;25.554;2022-12-18T01:19:39;66.97;;;45.00;;
43487;SDS011;29078;41.932;25.554;2022-12-18T01:22:04;58.42;;;41.17;;
43487;SDS011;29078;41.932;25.554;2022-12-18T01:24:30;65.63;;;46.20;;
43487;SDS011;29078;41.932;25.554;2022-12-18T01:26:55;57.95;;;41.58;;
43487;SDS011;29078;41.932;25.554;2022-12-18T01:29:22;54.88;;;41.08;;
43487;SDS011;29078;41.932;25.554;2022-12-18T01:31:47;62.50;;;43.72;;
43487;SDS011;29078;41.932;25.554;2022-12-18T01:34:13;53.30;;;38.22;;
43487;SDS011;29078;41.932;25.554;2022-12-18T01:36:38;53.13;;;38.00;;
43487;SDS011;29078;41.932;25.554;2022-12-18T01:39:06;50.38;;;37.60;;
43487;SDS011;29078;41.932;25.554;2022-12-18T01:41:34;51.83;;;39.17;;
43487;SDS011;29078;41.932;25.554;2022-12-18T01:52:52;39.28;;;30.77;;
43487;SDS011;29078;41.932;25.554;2022-12-18T01:55:22;41.47;;;31.00;;
43487;SDS011;29078;41.932;25.554;2022-12-18T01:57:52;47.95;;;33.85;;
43487;SDS011;29078;41.932;25.554;2022-12-18T02:00:20;42.67;;;31.42;;
43487;SDS011;29078;41.932;25.554;2022-12-18T02:02:47;47.22;;;32.67;;
43487;SDS011;29078;41.932;25.554;2022-12-18T02:05:15;46.85;;;33.13;;
43487;SDS011;29078;41.932;25.554;2022-12-18T02:18:54;36.53;;;26.90;;
43487;SDS011;29078;41.932;25.554;2022-12-18T02:26:58;34.85;;;25.27;;
43487;SDS011;29078;41.932;25.554;2022-12-18T02:29:32;36.83;;;28.08;;
43487;SDS011;29078;41.932;25.554;2022-12-18T02:32:24;36.58;;;27.50;;
43487;SDS011;29078;41.932;25.554;2022-12-18T02:34:53;35.13;;;27.88;;
43487;SDS011;29078;41.932;25.554;2022-12-18T02:37:21;34.85;;;26.05;;
43487;SDS011;29078;41.932;25.554;2022-12-18T02:39:48;41.92;;;31.00;;
43487;SDS011;29078;41.932;25.554;2022-12-18T02:42:14;39.58;;;31.38;;
43487;SDS011;29078;41.932;25.554;2022-12-18T02:44:46;39.50;;;29.10;;
43487;SDS011;29078;41.932;25.554;2022-12-18T02:47:13;35.53;;;28.02;;
43487;SDS011;29078;41.932;25.554;2022-12-18T03:03:43;37.00;;;29.10;;
43487;SDS011;29078;41.932;25.554;2022-12-18T03:06:18;44.40;;;34.17;;
43487;SDS011;29078;41.932;25.554;2022-12-18T03:08:49;41.28;;;30.85;;
43487;SDS011;29078;41.932;25.554;2022-12-18T03:11:19;40.67;;;33.45;;
43487;SDS011;29078;41.932;25.554;2022-12-18T03:14:04;52.08;;;35.30;;
43487;SDS011;29078;41.932;25.554;2022-12-18T03:16:32;47.70;;;35.75;;
43487;SDS011;29078;41.932;25.554;2022-12-18T03:19:01;41.33;;;31.58;;
43487;SDS011;29078;41.932;25.554;2022-12-18T03:21:42;46.20;;;33.72;;
43487;SDS011;29078;41.932;25.554;2022-12-18T03:24:10;47.53;;;34.17;;
43487;SDS011;29078;41.932;25.554;2022-12-18T03:26:36;42.53;;;31.88;;
43487;SDS011;29078;41.932;25.554;2022-12-18T03:29:11;43.42;;;33.75;;
43487;SDS011;29078;41.932;25.554;2022-12-18T03:31:42;47.03;;;34.10;;
43487;SDS011;29078;41.932;25.554;2022-12-18T03:34:17;55.70;;;38.42;;
43487;SDS011;29078;41.932;25.554;2022-12-18T03:36:49;47.22;;;33.53;;
43487;SDS011;29078;41.932;25.554;2022-12-18T03:39:14;52.05;;;35.50;;
43487;SDS011;29078;41.932;25.554;2022-12-18T03:41:55;51.13;;;36.45;;
43487;SDS011;29078;41.932;25.554;2022-12-18T03:47:29;43.25;;;30.92;;
43487;SDS011;29078;41.932;25.554;2022-12-18T03:50:07;41.65;;;29.25;;
43487;SDS011;29078;41.932;25.554;2022-12-18T03:53:03;44.17;;;30.40;;
43487;SDS011;29078;41.932;25.554;2022-12-18T03:55:30;39.85;;;27.35;;
43487;SDS011;29078;41.932;25.554;2022-12-18T03:57:59;34.40;;;25.98;;
43487;SDS011;29078;41.932;25.554;2022-12-18T04:00:28;40.60;;;27.90;;
43487;SDS011;29078;41.932;25.554;2022-12-18T04:02:56;45.67;;;31.33;;
43487;SDS011;29078;41.932;25.554;2022-12-18T04:05:25;37.70;;;26.90;;
43487;SDS011;29078;41.932;25.554;2022-12-18T04:07:53;38.28;;;27.08;;
43487;SDS011;29078;41.932;25.554;2022-12-18T04:10:20;39.38;;;28.08;;
43487;SDS011;29078;41.932;25.554;2022-12-18T04:12:45;35.85;;;27.02;;
43487;SDS011;29078;41.932;25.554;2022-12-18T04:15:11;42.78;;;29.05;;
43487;SDS011;29078;41.932;25.554;2022-12-18T04:17:38;43.85;;;30.52;;
43487;SDS011;29078;41.932;25.554;2022-12-18T04:20:06;32.65;;;25.08;;
43487;SDS011;29078;41.932;25.554;2022-12-18T04:22:32;53.17;;;34.40;;
43487;SDS011;29078;41.932;25.554;2022-12-18T04:24:58;47.75;;;33.42;;
43487;SDS011;29078;41.932;25.554;2022-12-18T04:27:23;42.95;;;31.65;;
43487;SDS011;29078;41.932;25.554;2022-12-18T04:29:48;40.85;;;30.98;;
43487;SDS011;29078;41.932;25.554;2022-12-18T04:32:14;43.85;;;32.75;;
43487;SDS011;29078;41.932;25.554;2022-12-18T04:34:39;36.22;;;29.27;;
43487;SDS011;29078;41.932;25.554;2022-12-18T04:37:04;34.85;;;27.83;;
43487;SDS011;29078;41.932;25.554;2022-12-18T04:39:30;41.08;;;30.80;;
43487;SDS011;29078;41.932;25.554;2022-12-18T04:41:55;39.75;;;30.23;;
43487;SDS011;29078;41.932;25.554;2022-12-18T04:44:21;43.63;;;33.30;;
43487;SDS011;29078;41.932;25.554;2022-12-18T04:46:46;45.80;;;34.17;;
43487;SDS011;29078;41.932;25.554;2022-12-18T04:49:11;37.47;;;29.08;;
43487;SDS011;29078;41.932;25.554;2022-12-18T04:51:37;40.03;;;31.77;;
43487;SDS011;29078;41.932;25.554;2022-12-18T04:54:03;44.20;;;33.97;;
43487;SDS011;29078;41.932;25.554;2022-12-18T04:56:29;44.28;;;32.72;;
43487;SDS011;29078;41.932;25.554;2022-12-18T04:58:55;39.92;;;30.05;;
43487;SDS011;29078;41.932;25.554;2022-12-18T05:01:21;47.35;;;35.97;;
43487;SDS011;29078;41.932;25.554;2022-12-18T05:03:46;46.88;;;33.53;;
43487;SDS011;29078;41.932;25.554;2022-12-18T05:06:12;44.78;;;33.55;;
43487;SDS011;29078;41.932;25.554;2022-12-18T05:08:38;46.63;;;35.03;;
43487;SDS011;29078;41.932;25.554;2022-12-18T05:13:29;41.10;;;31.92;;
43487;SDS011;29078;41.932;25.554;2022-12-18T05:15:56;45.85;;;35.05;;
43487;SDS011;29078;41.932;25.554;2022-12-18T05:18:22;43.38;;;32.45;;
43487;SDS011;29078;41.932;25.554;2022-12-18T05:20:49;47.97;;;36.33;;
43487;SDS011;29078;41.932;25.554;2022-12-18T05:23:14;48.22;;;39.70;;
43487;SDS011;29078;41.932;25.554;2022-12-18T05:25:40;45.58;;;36.03;;
43487;SDS011;29078;41.932;25.554;2022-12-18T05:28:05;43.08;;;34.28;;
43487;SDS011;29078;41.932;25.554;2022-12-18T05:30:31;48.47;;;36.30;;
43487;SDS011;29078;41.932;25.554;2022-12-18T05:32:56;52.10;;;38.00;;
43487;SDS011;29078;41.932;25.554;2022-12-18T05:35:21;51.60;;;38.35;;
43487;SDS011;29078;41.932;25.554;2022-12-18T05:37:47;47.65;;;36.45;;
43487;SDS011;29078;41.932;25.554;2022-12-18T05:40:12;46.88;;;35.75;;
43487;SDS011;29078;41.932;25.554;2022-12-18T05:42:37;49.85;;;37.30;;
43487;SDS011;29078;41.932;25.554;2022-12-18T05:45:03;55.65;;;40.17;;
43487;SDS011;29078;41.932;25.554;2022-12-18T05:47:29;53.88;;;41.80;;
43487;SDS011;29078;41.932;25.554;2022-12-18T05:49:55;52.22;;;39.92;;
43487;SDS011;29078;41.932;25.554;2022-12-18T05:52:21;54.95;;;42.22;;
43487;SDS011;29078;41.932;25.554;2022-12-18T05:54:46;59.47;;;45.15;;
43487;SDS011;29078;41.932;25.554;2022-12-18T05:57:12;65.85;;;48.20;;
43487;SDS011;29078;41.932;25.554;2022-12-18T05:59:37;65.47;;;50.83;;
43487;SDS011;29078;41.932;25.554;2022-12-18T06:02:03;62.47;;;46.53;;
43487;SDS011;29078;41.932;25.554;2022-12-18T06:04:28;61.90;;;46.95;;
43487;SDS011;29078;41.932;25.554;2022-12-18T06:06:54;52.15;;;38.90;;
43487;SDS011;29078;41.932;25.554;2022-12-18T06:09:19;48.70;;;36.58;;
43487;SDS011;29078;41.932;25.554;2022-12-18T06:11:45;42.75;;;29.55;;
43487;SDS011;29078;41.932;25.554;2022-12-18T06:14:10;36.97;;;28.30;;
43487;SDS011;29078;41.932;25.554;2022-12-18T06:16:35;37.00;;;27.23;;
43487;SDS011;29078;41.932;25.554;2022-12-18T06:19:02;37.92;;;29.13;;
43487;SDS011;29078;41.932;25.554;2022-12-18T06:21:29;30.70;;;26.10;;
43487;SDS011;29078;41.932;25.554;2022-12-18T06:23:55;31.85;;;26.05;;
43487;SDS011;29078;41.932;25.554;2022-12-18T06:26:21;35.65;;;27.38;;
43487;SDS011;29078;41.932;25.554;2022-12-18T06:28:46;34.47;;;25.80;;
43487;SDS011;29078;41.932;25.554;2022-12-18T06:31:12;28.20;;;23.85;;
43487;SDS011;29078;41.932;25.554;2022-12-18T06:33:38;29.80;;;23.75;;
43487;SDS011;29078;41.932;25.554;2022-12-18T06:38:34;27.13;;;21.13;;
43487;SDS011;29078;41.932;25.554;2022-12-18T06:41:00;29.60;;;22.92;;
43487;SDS011;29078;41.932;25.554;2022-12-18T06:43:26;28.52;;;21.38;;
43487;SDS011;29078;41.932;25.554;2022-12-18T06:45:57;25.95;;;20.58;;
43487;SDS011;29078;41.932;25.554;2022-12-18T06:48:23;28.33;;;21.73;;
43487;SDS011;29078;41.932;25.554;2022-12-18T06:50:49;22.70;;;18.52;;
43487;SDS011;29078;41.932;25.554;2022-12-18T06:53:14;23.38;;;18.52;;
43487;SDS011;29078;41.932;25.554;2022-12-18T06:55:39;22.42;;;18.42;;
43487;SDS011;29078;41.932;25.554;2022-12-18T06:58:05;17.90;;;15.32;;
43487;SDS011;29078;41.932;25.554;2022-12-18T07:00:31;18.00;;;14.35;;
43487;SDS011;29078;41.932;25.554;2022-12-18T07:02:56;16.55;;;13.95;;
43487;SDS011;29078;41.932;25.554;2022-12-18T07:05:21;17.20;;;13.65;;
43487;SDS011;29078;41.932;25.554;2022-12-18T07:07:47;15.98;;;13.80;;
43487;SDS011;29078;41.932;25.554;2022-12-18T07:10:13;13.73;;;11.30;;
43487;SDS011;29078;41.932;25.554;2022-12-18T07:12:38;10.43;;;9.18;;
43487;SDS011;29078;41.932;25.554;2022-12-18T07:15:04;9.85;;;8.88;;
43487;SDS011;29078;41.932;25.554;2022-12-18T07:17:30;12.00;;;9.65;;
43487;SDS011;29078;41.932;25.554;2022-12-18T07:19:55;10.85;;;8.85;;
43487;SDS011;29078;41.932;25.554;2022-12-18T07:22:21;9.70;;;8.75;;
43487;SDS011;29078;41.932;25.554;2022-12-18T07:24:47;9.98;;;8.98;;
43487;SDS011;29078;41.932;25.554;2022-12-18T07:27:15;10.57;;;9.50;;
43487;SDS011;29078;41.932;25.554;2022-12-18T07:29:40;11.18;;;9.40;;
43487;SDS011;29078;41.932;25.554;2022-12-18T07:32:06;9.90;;;8.90;;
43487;SDS011;29078;41.932;25.554;2022-12-18T07:34:32;12.40;;;9.18;;
43487;SDS011;29078;41.932;25.554;2022-12-18T07:36:57;11.65;;;9.80;;
43487;SDS011;29078;41.932;25.554;2022-12-18T07:39:23;14.35;;;10.95;;
43487;SDS011;29078;41.932;25.554;2022-12-18T07:41:48;11.50;;;9.88;;
43487;SDS011;29078;41.932;25.554;2022-12-18T07:44:33;15.52;;;10.95;;
43487;SDS011;29078;41.932;25.554;2022-12-18T07:46:59;13.02;;;9.88;;
43487;SDS011;29078;41.932;25.554;2022-12-18T07:49:24;13.77;;;11.35;;
43487;SDS011;29078;41.932;25.554;2022-12-18T07:51:50;16.25;;;13.13;;
43487;SDS011;29078;41.932;25.554;2022-12-18T07:54:15;15.93;;;13.63;;
43487;SDS011;29078;41.932;25.554;2022-12-18T07:56:41;14.93;;;12.85;;
43487;SDS011;29078;41.932;25.554;2022-12-18T07:59:06;15.23;;;12.50;;
43487;SDS011;29078;41.932;25.554;2022-12-18T08:01:32;16.60;;;13.57;;
43487;SDS011;29078;41.932;25.554;2022-12-18T08:03:58;17.73;;;15.80;;
43487;SDS011;29078;41.932;25.554;2022-12-18T08:06:24;18.38;;;14.90;;
43487;SDS011;29078;41.932;25.554;2022-12-18T08:08:50;17.50;;;14.85;;
43487;SDS011;29078;41.932;25.554;2022-12-18T08:11:17;17.83;;;14.25;;
43487;SDS011;29078;41.932;25.554;2022-12-18T08:13:42;17.55;;;14.48;;
43487;SDS011;29078;41.932;25.554;2022-12-18T08:16:08;18.45;;;16.45;;
43487;SDS011;29078;41.932;25.554;2022-12-18T08:18:34;19.92;;;15.77;;
43487;SDS011;29078;41.932;25.554;2022-12-18T08:21:16;17.55;;;15.30;;
43487;SDS011;29078;41.932;25.554;2022-12-18T08:23:43;16.85;;;14.35;;
43487;SDS011;29078;41.932;25.554;2022-12-18T08:26:10;18.48;;;14.75;;
43487;SDS011;29078;41.932;25.554;2022-12-18T08:28:36;18.25;;;13.70;;
43487;SDS011;29078;41.932;25.554;2022-12-18T08:31:01;14.35;;;12.75;;
43487;SDS011;29078;41.932;25.554;2022-12-18T08:33:27;15.65;;;12.63;;
43487;SDS011;29078;41.932;25.554;2022-12-18T08:35:53;16.30;;;13.02;;
43487;SDS011;29078;41.932;25.554;2022-12-18T08:38:18;17.90;;;13.07;;
43487;SDS011;29078;41.932;25.554;2022-12-18T08:40:44;14.82;;;12.20;;
43487;SDS011;29078;41.932;25.554;2022-12-18T08:43:10;15.55;;;12.73;;
43487;SDS011;29078;41.932;25.554;2022-12-18T08:45:54;16.50;;;12.85;;
43487;SDS011;29078;41.932;25.554;2022-12-18T08:48:20;17.95;;;14.02;;
43487;SDS011;29078;41.932;25.554;2022-12-18T08:50:55;14.10;;;10.90;;
43487;SDS011;29078;41.932;25.554;2022-12-18T08:53:22;14.35;;;10.98;;
43487;SDS011;29078;41.932;25.554;2022-12-18T08:55:49;13.80;;;11.95;;
43487;SDS011;29078;41.932;25.554;2022-12-18T08:58:14;15.73;;;13.13;;
43487;SDS011;29078;41.932;25.554;2022-12-18T09:00:40;16.15;;;13.52;;
43487;SDS011;29078;41.932;25.554;2022-12-18T09:03:05;16.98;;;13.48;;
43487;SDS011;29078;41.932;25.554;2022-12-18T09:05:42;17.20;;;12.95;;
43487;SDS011;29078;41.932;25.554;2022-12-18T09:08:08;14.70;;;12.77;;
43487;SDS011;29078;41.932;25.554;2022-12-18T09:10:34;14.35;;;12.23;;
43487;SDS011;29078;41.932;25.554;2022-12-18T09:13:05;17.42;;;12.82;;
43487;SDS011;29078;41.932;25.554;2022-12-18T09:15:31;14.20;;;11.65;;
43487;SDS011;29078;41.932;25.554;2022-12-18T09:17:56;14.95;;;12.40;;
43487;SDS011;29078;41.932;25.554;2022-12-18T09:20:22;13.95;;;11.77;;
43487;SDS011;29078;41.932;25.554;2022-12-18T09:22:47;14.55;;;12.00;;
43487;SDS011;29078;41.932;25.554;2022-12-18T09:25:12;14.05;;;12.57;;
43487;SDS011;29078;41.932;25.554;2022-12-18T09:27:38;16.95;;;14.30;;
43487;SDS011;29078;41.932;25.554;2022-12-18T09:30:04;17.38;;;13.23;;
43487;SDS011;29078;41.932;25.554;2022-12-18T09:32:30;15.02;;;12.30;;
43487;SDS011;29078;41.932;25.554;2022-12-18T09:34:55;14.23;;;11.07;;
43487;SDS011;29078;41.932;25.554;2022-12-18T09:37:21;13.98;;;11.05;;
43487;SDS011;29078;41.932;25.554;2022-12-18T09:39:46;13.60;;;11.95;;
43487;SDS011;29078;41.932;25.554;2022-12-18T09:42:17;13.43;;;10.13;;
43487;SDS011;29078;41.932;25.554;2022-12-18T09:44:48;11.57;;;10.38;;
43487;SDS011;29078;41.932;25.554;2022-12-18T09:47:23;14.18;;;11.60;;
43487;SDS011;29078;41.932;25.554;2022-12-18T09:49:55;13.05;;;9.88;;
43487;SDS011;29078;41.932;25.554;2022-12-18T09:55:02;13.83;;;11.73;;
43487;SDS011;29078;41.932;25.554;2022-12-18T09:57:29;14.82;;;12.77;;
43487;SDS011;29078;41.932;25.554;2022-12-18T09:59:59;14.13;;;12.55;;
43487;SDS011;29078;41.932;25.554;2022-12-18T10:02:32;16.70;;;13.15;;
43487;SDS011;29078;41.932;25.554;2022-12-18T10:05:07;17.38;;;14.93;;
43487;SDS011;29078;41.932;25.554;2022-12-18T10:10:57;18.42;;;15.55;;
43487;SDS011;29078;41.932;25.554;2022-12-18T10:13:37;19.35;;;15.10;;
43487;SDS011;29078;41.932;25.554;2022-12-18T10:16:29;20.48;;;17.33;;
43487;SDS011;29078;41.932;25.554;2022-12-18T10:19:18;19.30;;;16.85;;
43487;SDS011;29078;41.932;25.554;2022-12-18T10:22:01;20.17;;;16.73;;
43487;SDS011;29078;41.932;25.554;2022-12-18T10:24:42;18.70;;;16.60;;
43487;SDS011;29078;41.932;25.554;2022-12-18T10:27:29;23.80;;;18.73;;
43487;SDS011;29078;41.932;25.554;2022-12-18T10:29:56;23.27;;;19.33;;
43487;SDS011;29078;41.932;25.554;2022-12-18T10:32:24;23.48;;;19.10;;
43487;SDS011;29078;41.932;25.554;2022-12-18T10:34:54;22.77;;;19.67;;
43487;SDS011;29078;41.932;25.554;2022-12-18T10:37:25;23.10;;;19.50;;
43487;SDS011;29078;41.932;25.554;2022-12-18T10:40:12;20.88;;;17.20;;
43487;SDS011;29078;41.932;25.554;2022-12-18T10:42:40;22.98;;;18.98;;
43487;SDS011;29078;41.932;25.554;2022-12-18T10:45:14;24.75;;;18.48;;
43487;SDS011;29078;41.932;25.554;2022-12-18T10:47:49;22.95;;;18.67;;
43487;SDS011;29078;41.932;25.554;2022-12-18T10:50:19;20.23;;;17.75;;
43487;SDS011;29078;41.932;25.554;2022-12-18T10:53:02;25.05;;;19.02;;
43487;SDS011;29078;41.932;25.554;2022-12-18T10:55:33;22.67;;;17.98;;
43487;SDS011;29078;41.932;25.554;2022-12-18T10:58:25;24.05;;;19.92;;
43487;SDS011;29078;41.932;25.554;2022-12-18T11:06:10;28.13;;;22.85;;
43487;SDS011;29078;41.932;25.554;2022-12-18T11:08:35;25.83;;;23.02;;
43487;SDS011;29078;41.932;25.554;2022-12-18T11:11:01;30.10;;;23.90;;
43487;SDS011;29078;41.932;25.554;2022-12-18T11:13:28;32.08;;;25.58;;
43487;SDS011;29078;41.932;25.554;2022-12-18T11:15:55;31.88;;;24.67;;
43487;SDS011;29078;41.932;25.554;2022-12-18T11:18:23;31.48;;;25.95;;
43487;SDS011;29078;41.932;25.554;2022-12-18T11:20:50;30.20;;;23.48;;
43487;SDS011;29078;41.932;25.554;2022-12-18T11:23:18;31.40;;;24.55;;
43487;SDS011;29078;41.932;25.554;2022-12-18T11:25:51;31.85;;;25.55;;
43487;SDS011;29078;41.932;25.554;2022-12-18T11:36:23;34.70;;;28.08;;
43487;SDS011;29078;41.932;25.554;2022-12-18T11:38:48;37.78;;;29.95;;
43487;SDS011;29078;41.932;25.554;2022-12-18T11:41:32;32.60;;;26.80;;
43487;SDS011;29078;41.932;25.554;2022-12-18T11:44:22;25.38;;;21.40;;
43487;SDS011;29078;41.932;25.554;2022-12-18T11:49:28;24.55;;;18.20;;
43487;SDS011;29078;41.932;25.554;2022-12-18T11:52:13;24.00;;;16.67;;
43487;SDS011;29078;41.932;25.554;2022-12-18T11:54:44;21.77;;;16.90;;
43487;SDS011;29078;41.932;25.554;2022-12-18T11:57:16;24.05;;;18.33;;
43487;SDS011;29078;41.932;25.554;2022-12-18T12:08:05;31.10;;;17.90;;
43487;SDS011;29078;41.932;25.554;2022-12-18T12:13:37;26.92;;;21.15;;
43487;SDS011;29078;41.932;25.554;2022-12-18T12:16:20;36.22;;;25.40;;
43487;SDS011;29078;41.932;25.554;2022-12-18T12:19:05;31.27;;;22.65;;
43487;SDS011;29078;41.932;25.554;2022-12-18T12:27:10;39.63;;;29.73;;
43487;SDS011;29078;41.932;25.554;2022-12-18T12:40:05;34.22;;;27.48;;
43487;SDS011;29078;41.932;25.554;2022-12-18T12:42:33;41.30;;;32.72;;
43487;SDS011;29078;41.932;25.554;2022-12-18T12:45:28;41.53;;;32.78;;
43487;SDS011;29078;41.932;25.554;2022-12-18T12:48:01;31.80;;;26.83;;
43487;SDS011;29078;41.932;25.554;2022-12-18T12:50:29;23.65;;;19.85;;
43487;SDS011;29078;41.932;25.554;2022-12-18T12:52:59;22.50;;;20.10;;
43487;SDS011;29078;41.932;25.554;2022-12-18T12:55:27;18.67;;;16.27;;
43487;SDS011;29078;41.932;25.554;2022-12-18T13:00:19;16.00;;;14.25;;
43487;SDS011;29078;41.932;25.554;2022-12-18T13:08:28;13.77;;;10.60;;
43487;SDS011;29078;41.932;25.554;2022-12-18T13:10:56;14.20;;;12.10;;
43487;SDS011;29078;41.932;25.554;2022-12-18T13:13:48;13.73;;;11.23;;
43487;SDS011;29078;41.932;25.554;2022-12-18T13:16:14;14.95;;;13.18;;
43487;SDS011;29078;41.932;25.554;2022-12-18T13:18:48;15.25;;;13.32;;
43487;SDS011;29078;41.932;25.554;2022-12-18T13:21:21;16.13;;;13.05;;
43487;SDS011;29078;41.932;25.554;2022-12-18T13:23:52;17.20;;;14.70;;
43487;SDS011;29078;41.932;25.554;2022-12-18T13:31:12;18.42;;;14.88;;
43487;SDS011;29078;41.932;25.554;2022-12-18T13:33:40;16.13;;;14.10;;
43487;SDS011;29078;41.932;25.554;2022-12-18T13:38:47;21.35;;;16.23;;
43487;SDS011;29078;41.932;25.554;2022-12-18T13:41:46;18.70;;;16.23;;
43487;SDS011;29078;41.932;25.554;2022-12-18T13:47:05;17.77;;;14.45;;
43487;SDS011;29078;41.932;25.554;2022-12-18T13:49:57;12.55;;;10.82;;
43487;SDS011;29078;41.932;25.554;2022-12-18T13:52:28;17.00;;;13.52;;
43487;SDS011;29078;41.932;25.554;2022-12-18T13:54:58;17.15;;;14.43;;
43487;SDS011;29078;41.932;25.554;2022-12-18T13:59:56;21.70;;;17.67;;
43487;SDS011;29078;41.932;25.554;2022-12-18T14:02:39;24.38;;;18.80;;
43487;SDS011;29078;41.932;25.554;2022-12-18T14:05:21;20.98;;;16.48;;
43487;SDS011;29078;41.932;25.554;2022-12-18T14:07:52;25.33;;;20.05;;
43487;SDS011;29078;41.932;25.554;2022-12-18T14:10:19;24.65;;;18.20;;
43487;SDS011;29078;41.932;25.554;2022-12-18T14:12:49;23.77;;;18.90;;
43487;SDS011;29078;41.932;25.554;2022-12-18T14:20:52;21.80;;;17.20;;
43487;SDS011;29078;41.932;25.554;2022-12-18T14:23:41;19.63;;;15.40;;
43487;SDS011;29078;41.932;25.554;2022-12-18T14:28:54;25.48;;;19.88;;
43487;SDS011;29078;41.932;25.554;2022-12-18T14:31:24;24.35;;;17.60;;
43487;SDS011;29078;41.932;25.554;2022-12-18T14:33:52;23.17;;;17.25;;
43487;SDS011;29078;41.932;25.554;2022-12-18T14:36:22;19.48;;;14.55;;
43487;SDS011;29078;41.932;25.554;2022-12-18T14:38:50;18.55;;;14.63;;
43487;SDS011;29078;41.932;25.554;2022-12-18T14:41:19;23.00;;;17.25;;
43487;SDS011;29078;41.932;25.554;2022-12-18T14:43:46;17.95;;;14.32;;
43487;SDS011;29078;41.932;25.554;2022-12-18T14:49:18;19.77;;;15.38;;
43487;SDS011;29078;41.932;25.554;2022-12-18T14:51:56;23.80;;;18.20;;
43487;SDS011;29078;41.932;25.554;2022-12-18T14:54:28;19.80;;;14.57;;
43487;SDS011;29078;41.932;25.554;2022-12-18T14:57:02;18.50;;;15.00;;
43487;SDS011;29078;41.932;25.554;2022-12-18T14:59:29;18.17;;;15.38;;
43487;SDS011;29078;41.932;25.554;2022-12-18T15:04:46;20.38;;;15.27;;
43487;SDS011;29078;41.932;25.554;2022-12-18T15:07:16;17.45;;;15.38;;
43487;SDS011;29078;41.932;25.554;2022-12-18T15:09:44;17.50;;;15.02;;
43487;SDS011;29078;41.932;25.554;2022-12-18T15:12:37;19.27;;;16.25;;
43487;SDS011;29078;41.932;25.554;2022-12-18T15:20:53;19.02;;;15.18;;
43487;SDS011;29078;41.932;25.554;2022-12-18T15:23:37;17.38;;;14.65;;
43487;SDS011;29078;41.932;25.554;2022-12-18T15:26:13;19.42;;;14.93;;
43487;SDS011;29078;41.932;25.554;2022-12-18T15:28:58;22.67;;;16.42;;
43487;SDS011;29078;41.932;25.554;2022-12-18T15:36:24;23.17;;;18.13;;
43487;SDS011;29078;41.932;25.554;2022-12-18T15:39:01;22.13;;;17.40;;
43487;SDS011;29078;41.932;25.554;2022-12-18T15:41:27;23.35;;;17.48;;
43487;SDS011;29078;41.932;25.554;2022-12-18T15:43:53;25.83;;;16.98;;
43487;SDS011;29078;41.932;25.554;2022-12-18T15:46:22;18.67;;;15.68;;
43487;SDS011;29078;41.932;25.554;2022-12-18T15:48:55;19.42;;;15.20;;
43487;SDS011;29078;41.932;25.554;2022-12-18T15:51:26;19.55;;;14.40;;
43487;SDS011;29078;41.932;25.554;2022-12-18T15:53:56;24.33;;;16.48;;
43487;SDS011;29078;41.932;25.554;2022-12-18T15:56:24;18.67;;;15.60;;
43487;SDS011;29078;41.932;25.554;2022-12-18T15:59:12;17.15;;;15.02;;
43487;SDS011;29078;41.932;25.554;2022-12-18T16:01:39;19.58;;;15.73;;
43487;SDS011;29078;41.932;25.554;2022-12-18T16:04:06;21.40;;;16.33;;
43487;SDS011;29078;41.932;25.554;2022-12-18T16:06:31;28.25;;;19.55;;
43487;SDS011;29078;41.932;25.554;2022-12-18T16:08:57;20.33;;;15.27;;
43487;SDS011;29078;41.932;25.554;2022-12-18T16:11:23;20.33;;;16.02;;
43487;SDS011;29078;41.932;25.554;2022-12-18T16:14:25;21.00;;;16.35;;
43487;SDS011;29078;41.932;25.554;2022-12-18T16:17:01;24.05;;;19.27;;
43487;SDS011;29078;41.932;25.554;2022-12-18T16:19:28;20.75;;;16.90;;
43487;SDS011;29078;41.932;25.554;2022-12-18T16:21:55;22.60;;;17.80;;
43487;SDS011;29078;41.932;25.554;2022-12-18T16:24:23;23.20;;;18.40;;
43487;SDS011;29078;41.932;25.554;2022-12-18T16:26:51;16.95;;;14.05;;
43487;SDS011;29078;41.932;25.554;2022-12-18T16:29:17;19.10;;;15.27;;
43487;SDS011;29078;41.932;25.554;2022-12-18T16:31:43;22.73;;;18.40;;
43487;SDS011;29078;41.932;25.554;2022-12-18T16:34:10;20.75;;;17.42;;
43487;SDS011;29078;41.932;25.554;2022-12-18T16:36:42;18.50;;;15.93;;
43487;SDS011;29078;41.932;25.554;2022-12-18T16:39:08;22.08;;;17.20;;
43487;SDS011;29078;41.932;25.554;2022-12-18T16:41:33;19.27;;;15.48;;
43487;SDS011;29078;41.932;25.554;2022-12-18T16:43:59;22.90;;;17.80;;